EGLLCYYR

Guest
Details From EGLL - London Heathrow
To CYYR - Goose Bay
Flight Number -
Tags Generated
Created
Modified
Stats Distance 2,134 nm / 3,953 km
Max Altitude 0 ft / 0 m
Waypoints 4
Social Downloads 2
Likes 0
Share VATSIM

Download

Looking for another format? Having issues loading an existing format? Contact us
Advertisement - Login to hide

Notes

Generated

Route

EGLL BAL35 BIMVI CYYR

ID Type Via Altitude Latitude Longitude Leg Dist Tot Dist Heading (true) Name
O EGLL APT - 0 ft / 0 m 51.46477˚ -0.48695˚ - 0 nm - -
BAL35 FIX - 0 ft / 0 m 53.22462˚ -6.59622˚ 247 nm 247 nm 298° / 293° -
BIMVI FIX - 0 ft / 0 m 53.36501˚ -60.29979˚ 1881 nm 2129 nm 292° / 248° -
O CYYR APT - 0 ft / 0 m 53.33389˚ -60.43639˚ 5 nm 2134 nm 249° / 249° -

Altitude Profile

Advertisement - Login to hide

Weather


0- 5 10 15 20 25 30 35+ Temperature / ° C

Clouds and Precipitation
Forecast for 2017-12-18 12:00 UTC. Updated 2 hours ago

Ground ~20,000 ft ~40,000 ft Winds

EGLL

Details ICAO EGLL (LHR)
Name London Heathrow
Region United Kingdom
Timezone Europe/London (UTC+0.0)
Stats Elevation 83 ft / 25 m (AMSL)
Location 51.471218° -0.460978°
Runways 2
Magnetic Variation 0.558° W

METAR

EGLL 181250Z AUTO VRB03KT 9999 NCD 07/03 Q1030 NOSIG

Decode

TAF

TAF EGLL 181057Z 1812/1918 34005KT 9999 FEW040 BECMG 1816/1819 5000 BR BECMG 1819/1822 2000 MIFG PROB30 1822/1824 0200 FG VV/// PROB40 1900/1903 0200 FG VV/// BECMG 1903/1906 0200 FG FZFG VV/// BECMG 1910/1913 3000 BR BKN003 PROB30 1913/1917 0500 FG VV///

Decode

Departure Runways

ID Width Length Bearing (true) Bearing (mag) Surface Threshold Offset Overrun Length
09L 164 ft / 50 m 12,811 ft / 3,905 m 89.64° 90.20° Asphalt 1,004 ft / 306 m 0 ft / 0 m
09R 164 ft / 50 m 12,019 ft / 3,663 m 89.67° 90.23° Asphalt 1,007 ft / 307 m 0 ft / 0 m
27L 164 ft / 50 m 12,019 ft / 3,663 m 269.71° 270.27° Asphalt 0 ft / 0 m 69 ft / 21 m
27R 164 ft / 50 m 12,811 ft / 3,905 m 269.69° 270.25° Asphalt 0 ft / 0 m 69 ft / 21 m

CYYR

Details ICAO CYYR (YYR)
Name Goose Bay
Region Canada
Timezone America/Goose_Bay (UTC-4.0)
Stats Elevation 160 ft / 49 m (AMSL)
Location 53.318820° -60.423890°
Runways 2
Magnetic Variation 20.961° W

METAR

CYYR 181300Z 26015G21KT 15SM FEW008 FEW160 FEW220 M20/M27 A2984 RMK SF1AC1CI1 SLP110

Decode

TAF

TAF CYYR 181130Z 1812/1912 26012G22KT P6SM FEW150 FM181900 25010G20KT P6SM BKN060 TEMPO 1819/1906 P6SM -SN BECMG 1820/1822 25010KT FM190600 21005KT P6SM SCT040 BKN240 RMK NXT FCST BY 181800Z

Decode

Destination Runways

ID Width Length Bearing (true) Bearing (mag) Surface Threshold Offset Overrun Length
08 209 ft / 64 m 11,055 ft / 3,369 m 54.70° 75.66° Asphalt 0 ft / 0 m 1,000 ft / 305 m
16 200 ft / 61 m 9,515 ft / 2,900 m 132.96° 153.92° Asphalt 0 ft / 0 m 0 ft / 0 m
26 209 ft / 64 m 11,055 ft / 3,369 m 234.73° 255.69° Asphalt 0 ft / 0 m 1,000 ft / 305 m
34 200 ft / 61 m 9,515 ft / 2,900 m 312.99° 333.95° Asphalt 0 ft / 0 m 500 ft / 152 m

Popular Alternatives